Time;durP1;ratioP1;P1;durP2;ratioP2;P2;SDS_P1;SDS_P2;PMS_P1;PMS_P2;Temp;Humidity;BMP_temperature;BMP_pressure;BME280_temperature;BME280_humidity;BME280_pressure;Samples;Min_cycle;Max_cycle;Signal;HPM_P1;HPM_P2
2022/07/29 00:01:55;;;;;;;0.00;0.00;;;;;;;18.72;54.92;101191.13;7363263;19;20103;-66
2022/07/29 00:04:20;;;;;;;0.00;0.00;;;;;;;18.77;54.60;101195.28;7363767;19;20090;-65
2022/07/29 00:06:46;;;;;;;0.05;0.05;;;;;;;18.70;54.29;101193.84;7364624;19;20015;-66
2022/07/29 00:09:11;;;;;;;0.03;0.03;;;;;;;18.68;55.18;101206.28;7363745;19;20150;-66
2022/07/29 00:11:37;;;;;;;0.00;0.00;;;;;;;18.57;54.46;101192.69;7360585;19;20011;-65
2022/07/29 00:14:02;;;;;;;0.00;0.00;;;;;;;18.59;54.40;101196.97;7363678;19;20014;-66
2022/07/29 00:16:27;;;;;;;0.00;0.00;;;;;;;18.56;54.24;101206.88;7361105;19;20018;-65
2022/07/29 00:18:53;;;;;;;0.00;0.00;;;;;;;18.42;54.42;101189.84;7363664;19;20056;-64
2022/07/29 00:21:18;;;;;;;0.10;0.10;;;;;;;18.50;55.08;101207.13;7363573;19;20010;-66
2022/07/29 00:23:44;;;;;;;0.00;0.00;;;;;;;18.47;54.78;101212.59;7360658;19;20042;-65
2022/07/29 00:26:09;;;;;;;0.00;0.00;;;;;;;18.45;55.03;101204.72;7363005;19;20099;-65
2022/07/29 00:28:35;;;;;;;0.00;0.00;;;;;;;18.45;55.61;101209.13;7364967;19;20469;-66
2022/07/29 00:31:00;;;;;;;0.10;0.10;;;;;;;18.46;55.68;101200.31;7360869;19;20751;-66
2022/07/29 00:33:25;;;;;;;0.00;0.00;;;;;;;18.46;55.50;101200.31;7360984;19;20062;-66
2022/07/29 00:35:51;;;;;;;0.00;0.00;;;;;;;18.47;55.50;101199.38;7361731;19;20037;-66
2022/07/29 00:38:19;;;;;;;0.10;0.10;;;;;;;18.49;55.54;101194.84;7365152;19;20017;-66
2022/07/29 00:40:46;;;;;;;0.00;0.00;;;;;;;18.49;56.06;101200.13;7361309;19;20070;-64
2022/07/29 00:43:13;;;;;;;0.00;0.00;;;;;;;18.47;56.06;101196.72;7364612;19;20999;-64
2022/07/29 00:45:39;;;;;;;0.00;0.00;;;;;;;18.49;56.41;101195.69;7363634;19;20015;-64
2022/07/29 00:48:05;;;;;;;0.00;0.00;;;;;;;18.50;57.01;101197.44;7363107;19;20014;-65
2022/07/29 00:50:31;;;;;;;0.00;0.00;;;;;;;18.50;56.87;101196.56;7362693;19;20010;-66
2022/07/29 00:52:57;;;;;;;0.00;0.00;;;;;;;18.51;56.51;101185.06;7362897;19;20017;-65
2022/07/29 00:55:23;;;;;;;0.00;0.00;;;;;;;18.52;56.68;101190.28;7362683;19;20442;-64
2022/07/29 00:57:49;;;;;;;0.00;0.00;;;;;;;18.52;56.68;101195.56;7363424;19;20014;-64
2022/07/29 01:00:21;;;;;;;0.00;0.00;;;;;;;18.55;56.86;101189.25;7363335;19;20533;-65
2022/07/29 01:02:50;;;;;;;0.00;0.00;;;;;;;18.53;56.59;101180.56;7364974;19;20459;-65
2022/07/29 01:05:21;;;;;;;0.00;0.00;;;;;;;18.57;56.62;101192.69;7359908;19;20019;-66
2022/07/29 01:07:50;;;;;;;0.00;0.00;;;;;;;18.59;57.24;101180.25;7363091;19;20018;-65
2022/07/29 01:10:18;;;;;;;0.00;0.00;;;;;;;18.60;57.40;101182.84;7362307;19;20916;-66
2022/07/29 01:12:45;;;;;;;0.10;0.10;;;;;;;18.61;57.01;101181.06;7363273;19;20034;-65
2022/07/29 01:15:12;;;;;;;0.00;0.00;;;;;;;18.56;57.19;101169.84;7363793;19;20026;-64
2022/07/29 01:18:08;;;;;;;0.10;0.10;;;;;;;18.65;56.16;101170.25;7364533;19;20025;-66
2022/07/29 01:20:52;;;;;;;0.00;0.00;;;;;;;18.68;55.98;101174.53;7264477;19;2004158;-66
2022/07/29 01:23:41;;;;;;;0.00;0.00;;;;;;;18.69;56.42;101176.25;7364972;19;20014;-65
2022/07/29 01:26:15;;;;;;;0.10;0.10;;;;;;;18.69;57.33;101170.97;7365296;19;20126;-66
2022/07/29 01:28:59;;;;;;;0.00;0.00;;;;;;;18.71;56.42;101178.84;7364580;19;20436;-66
2022/07/29 01:31:32;;;;;;;0.00;0.00;;;;;;;18.53;57.51;101149.66;7362976;19;20023;-65
2022/07/29 01:34:03;;;;;;;0.05;0.05;;;;;;;18.65;57.85;101170.25;7365552;19;20031;-65
2022/07/29 01:36:40;;;;;;;0.00;0.00;;;;;;;18.73;57.55;101176.97;7365169;19;20237;-64
2022/07/29 01:39:29;;;;;;;0.00;0.00;;;;;;;18.74;56.10;101178.69;7364454;19;20011;-65
2022/07/29 01:42:12;;;;;;;0.00;0.00;;;;;;;18.73;56.62;101180.47;7366102;19;20767;-66
2022/07/29 01:45:25;;;;;;;0.05;0.05;;;;;;;18.72;57.04;101181.41;7365408;19;20011;-64
2022/07/29 01:48:03;;;;;;;0.10;0.10;;;;;;;18.71;56.80;101182.34;7258283;19;2004181;-65
2022/07/29 01:50:34;;;;;;;0.00;0.00;;;;;;;18.72;57.00;101183.19;7364737;19;20659;-65
2022/07/29 01:53:03;;;;;;;0.10;0.10;;;;;;;18.70;57.92;101177.97;7363409;19;20661;-65
2022/07/29 01:55:33;;;;;;;0.00;0.00;;;;;;;18.70;58.04;101179.75;7364551;19;20487;-64
2022/07/29 01:58:02;;;;;;;0.00;0.00;;;;;;;18.69;58.05;101181.53;7353278;19;20006;-65
2022/07/29 02:00:29;;;;;;;0.08;0.08;;;;;;;18.69;58.68;101176.25;7362970;19;20525;-64
2022/07/29 02:02:58;;;;;;;0.10;0.10;;;;;;;18.69;58.96;101181.53;7363934;19;20038;-65
2022/07/29 02:05:25;;;;;;;0.00;0.00;;;;;;;18.65;58.80;101174.66;7360558;19;20006;-65
2022/07/29 02:07:53;;;;;;;0.00;0.00;;;;;;;18.71;58.61;101179.69;7359519;19;20050;-65
2022/07/29 02:10:23;;;;;;;0.00;0.00;;;;;;;18.71;58.63;101185.00;7362538;19;20456;-65
2022/07/29 02:12:50;;;;;;;0.00;0.00;;;;;;;18.71;59.16;101184.13;7357023;19;20009;-65
2022/07/29 02:15:16;;;;;;;0.00;0.00;;;;;;;18.70;59.12;101180.59;7363893;19;20066;-65
2022/07/29 02:17:48;;;;;;;0.05;0.05;;;;;;;18.73;59.28;101182.25;7363184;19;20304;-65
2022/07/29 02:20:15;;;;;;;0.00;0.00;;;;;;;18.72;59.30;101176.13;7360691;19;20002;-64
2022/07/29 02:22:43;;;;;;;0.00;0.00;;;;;;;18.73;59.35;101180.47;7360531;19;20478;-65
2022/07/29 02:25:10;;;;;;;0.00;0.00;;;;;;;18.74;59.48;101176.88;7362940;19;20680;-64
2022/07/29 02:27:39;;;;;;;0.10;0.10;;;;;;;18.74;59.27;101179.53;7361588;19;20443;-66
2022/07/29 02:30:06;;;;;;;0.00;0.00;;;;;;;18.73;59.69;101180.47;7362596;19;20473;-66
2022/07/29 02:32:36;;;;;;;0.10;0.10;;;;;;;18.71;59.07;101165.63;7361925;19;20011;-66
2022/07/29 02:35:02;;;;;;;0.10;0.10;;;;;;;18.75;59.67;101175.94;7361567;19;20014;-66
2022/07/29 02:37:30;;;;;;;0.00;0.00;;;;;;;18.77;59.52;101178.53;7362212;19;20162;-64
2022/07/29 02:39:57;;;;;;;0.00;0.00;;;;;;;18.77;59.25;101179.41;7361515;19;20487;-65
2022/07/29 02:42:23;;;;;;;;;;;;;;;18.80;56.91;101179.22;7364026;19;20010;-64
2022/07/29 02:44:50;;;;;;;0.00;0.00;;;;;;;18.44;59.77;101128.09;7361710;19;19927;-64
2022/07/29 02:47:38;;;;;;;0.00;0.00;;;;;;;18.78;59.54;101175.81;7361240;19;20015;-66
2022/07/29 02:50:19;;;;;;;0.00;0.00;;;;;;;18.80;58.33;101173.94;7358030;19;20010;-65
2022/07/29 02:52:58;;;;;;;0.03;0.03;;;;;;;18.77;59.55;101167.97;7362812;19;20015;-66
2022/07/29 02:55:46;;;;;;;0.00;0.00;;;;;;;18.79;58.26;101164.28;7361424;19;20029;-65
2022/07/29 02:58:23;;;;;;;0.10;0.10;;;;;;;18.79;59.10;101161.63;7354291;19;20019;-64
2022/07/29 03:00:51;;;;;;;0.10;0.10;;;;;;;18.77;59.99;101163.53;7361964;19;20015;-65
2022/07/29 03:03:18;;;;;;;0.00;0.00;;;;;;;18.67;59.39;101146.34;7357986;19;20014;-64
2022/07/29 03:05:44;;;;;;;0.05;0.05;;;;;;;18.78;59.56;101170.53;7355515;19;20003;-65
2022/07/29 03:08:12;;;;;;;0.00;0.00;;;;;;;18.81;59.65;101172.16;7361812;19;20053;-65
2022/07/29 03:10:42;;;;;;;0.10;0.10;;;;;;;18.80;59.18;101173.94;7362200;19;20034;-65
2022/07/29 03:13:09;;;;;;;0.10;0.10;;;;;;;18.80;59.52;101175.72;7359028;19;20485;-65
2022/07/29 03:15:35;;;;;;;0.00;0.00;;;;;;;18.81;59.12;101174.81;7363584;19;20036;-65
2022/07/29 03:18:01;;;;;;;0.00;0.00;;;;;;;18.79;59.91;101171.38;7357777;19;20433;-64
2022/07/29 03:20:27;;;;;;;0.00;0.00;;;;;;;18.76;59.82;101167.09;7357204;19;20014;-65
2022/07/29 03:22:52;;;;;;;0.10;0.10;;;;;;;18.83;59.06;101172.94;7361270;19;20002;-66
2022/07/29 03:25:19;;;;;;;0.10;0.10;;;;;;;18.77;59.33;101158.22;7360813;19;20134;-65
2022/07/29 03:27:46;;;;;;;0.00;0.00;;;;;;;18.83;59.19;101168.50;7362179;19;20352;-66
2022/07/29 03:30:13;;;;;;;0.10;0.10;;;;;;;18.76;59.41;101156.53;7361802;19;20014;-65
2022/07/29 03:32:39;;;;;;;0.00;0.00;;;;;;;18.77;59.12;101158.22;7362151;19;20031;-65
2022/07/29 03:35:05;;;;;;;0.03;0.03;;;;;;;18.75;59.61;101149.50;7361865;19;20019;-65
2022/07/29 03:37:31;;;;;;;0.08;0.08;;;;;;;18.82;59.42;101161.50;7361011;19;20026;-64
2022/07/29 03:39:57;;;;;;;0.00;0.00;;;;;;;18.77;59.48;101152.94;7362172;19;20014;-66
2022/07/29 03:42:26;;;;;;;0.10;0.10;;;;;;;18.85;59.56;101171.91;7361486;19;20018;-65
2022/07/29 03:44:54;;;;;;;0.10;0.10;;;;;;;18.79;59.08;101161.63;7361724;19;20078;-65
2022/07/29 03:47:25;;;;;;;0.10;0.10;;;;;;;18.84;58.84;101164.91;7361292;19;20026;-64
2022/07/29 03:49:54;;;;;;;0.00;0.00;;;;;;;18.78;59.56;101170.53;7359477;19;20010;-65
2022/07/29 03:52:21;;;;;;;0.10;0.10;;;;;;;18.80;59.39;101173.94;7359813;19;20029;-65
2022/07/29 03:54:47;;;;;;;0.00;0.00;;;;;;;18.82;59.01;101184.47;7360913;19;20011;-66
2022/07/29 03:57:14;;;;;;;0.10;0.10;;;;;;;18.74;59.27;101163.66;7359917;19;20007;-66
2022/07/29 03:59:41;;;;;;;0.00;0.00;;;;;;;18.78;59.39;101174.97;7358210;19;20039;-64
2022/07/29 04:02:09;;;;;;;0.08;0.08;;;;;;;18.84;59.04;101185.22;7360594;19;20014;-65
2022/07/29 04:04:35;;;;;;;0.10;0.10;;;;;;;18.73;59.56;101177.81;7360473;19;20010;-66
2022/07/29 04:07:01;;;;;;;0.00;0.00;;;;;;;18.81;59.27;101194.19;7362133;19;20042;-66
2022/07/29 04:09:26;;;;;;;0.10;0.10;;;;;;;18.80;59.49;101186.31;7362817;19;20102;-66
2022/07/29 04:11:52;;;;;;;0.00;0.00;;;;;;;18.77;59.91;101187.34;7369103;19;20052;-66
2022/07/29 04:14:18;;;;;;;0.10;0.10;;;;;;;18.73;60.51;101191.06;7366699;19;20038;-65
2022/07/29 04:16:43;;;;;;;0.10;0.10;;;;;;;18.71;61.16;101200.88;7370165;19;20014;-65
2022/07/29 04:19:09;;;;;;;0.10;0.10;;;;;;;18.65;63.30;101201.09;7364393;19;20030;-66
2022/07/29 04:21:41;;;;;;;0.00;0.00;;;;;;;18.61;62.55;101207.50;7367566;19;20014;-66
2022/07/29 04:24:07;;;;;;;0.00;0.00;;;;;;;18.50;64.70;101207.13;7368401;19;21041;-65
2022/07/29 04:26:33;;;;;;;0.00;0.00;;;;;;;18.40;64.72;101212.88;7367240;19;20081;-64
2022/07/29 04:28:59;;;;;;;0.00;0.00;;;;;;;18.27;66.22;101209.09;7366686;19;20007;-66
2022/07/29 04:31:24;;;;;;;0.00;0.00;;;;;;;18.16;66.24;101198.16;7367782;19;20018;-65
2022/07/29 04:33:50;;;;;;;0.00;0.00;;;;;;;18.13;66.86;101203.56;7367198;19;20010;-66
2022/07/29 04:36:15;;;;;;;0.00;0.00;;;;;;;17.75;66.80;101152.50;7366955;19;20041;-65
2022/07/29 04:38:41;;;;;;;0.10;0.10;;;;;;;18.05;67.28;101203.09;7366474;19;20019;-65
2022/07/29 04:41:08;;;;;;;0.00;0.00;;;;;;;18.02;66.84;101200.56;7366736;19;20014;-65
2022/07/29 04:43:34;;;;;;;0.00;0.00;;;;;;;17.92;66.95;101188.72;7363362;19;20558;-65
2022/07/29 04:46:00;;;;;;;0.00;0.00;;;;;;;18.01;66.54;101204.16;7367917;19;20034;-64
2022/07/29 04:48:25;;;;;;;0.00;0.00;;;;;;;18.00;67.43;101210.38;7365031;19;20014;-65
2022/07/29 04:50:51;;;;;;;0.10;0.10;;;;;;;18.01;67.07;101204.16;7367467;19;20060;-65
2022/07/29 04:53:19;;;;;;;0.00;0.00;;;;;;;17.94;67.39;101198.25;7365770;19;20097;-65
2022/07/29 04:55:45;;;;;;;0.00;0.00;;;;;;;18.02;68.10;101205.84;7365510;19;20101;-64
2022/07/29 04:58:11;;;;;;;0.10;0.10;;;;;;;18.06;67.95;101212.72;7365290;19;20082;-65
2022/07/29 05:00:37;;;;;;;0.00;0.00;;;;;;;18.08;68.32;101205.56;7366108;19;20014;-65
2022/07/29 05:03:03;;;;;;;0.00;0.00;;;;;;;18.08;67.05;101198.50;7364050;19;20034;-65
2022/07/29 05:05:29;;;;;;;0.05;0.05;;;;;;;18.12;68.64;101196.56;7366782;19;20114;-65
2022/07/29 05:07:55;;;;;;;0.10;0.10;;;;;;;18.14;68.78;101200.84;7365278;19;20094;-65
2022/07/29 05:10:20;;;;;;;0.00;0.00;;;;;;;18.15;68.59;101199.09;7365573;19;20021;-65
2022/07/29 05:12:46;;;;;;;0.10;0.10;;;;;;;18.21;68.96;101200.59;7364437;19;20023;-65
2022/07/29 05:15:11;;;;;;;0.00;0.00;;;;;;;18.23;68.59;101199.56;7365518;19;20063;-66
2022/07/29 05:17:37;;;;;;;0.00;0.00;;;;;;;18.12;68.14;101180.72;7367385;19;20045;-65
2022/07/29 05:20:03;;;;;;;0.00;0.00;;;;;;;18.27;68.41;101201.16;7362120;19;20011;-66
2022/07/29 05:22:28;;;;;;;0.00;0.00;;;;;;;18.30;68.20;101200.16;7364454;19;20039;-65
2022/07/29 05:24:53;;;;;;;0.00;0.00;;;;;;;18.31;68.41;101197.44;7365067;19;20387;-65
2022/07/29 05:27:19;;;;;;;0.10;0.10;;;;;;;18.34;68.52;101192.00;7364977;19;20006;-65
2022/07/29 05:29:44;;;;;;;0.10;0.10;;;;;;;18.23;68.36;101167.84;7363639;19;20015;-64
2022/07/29 05:32:10;;;;;;;0.00;0.00;;;;;;;18.37;67.81;101186.56;7365442;19;20773;-65
2022/07/29 05:34:35;;;;;;;0.05;0.05;;;;;;;18.38;68.16;101195.34;7363916;19;20018;-65
2022/07/29 05:37:00;;;;;;;0.10;0.10;;;;;;;18.39;67.72;101200.56;7365727;19;20356;-66
2022/07/29 05:39:26;;;;;;;0.10;0.10;;;;;;;18.40;67.33;101201.44;7364011;19;20018;-65
2022/07/29 05:41:51;;;;;;;0.00;0.00;;;;;;;18.40;66.81;101198.81;7365887;19;20018;-65
2022/07/29 05:44:17;;;;;;;0.03;0.03;;;;;;;18.39;66.47;101200.56;7363340;19;20022;-65
2022/07/29 05:46:42;;;;;;;0.05;0.05;;;;;;;18.39;67.86;101200.56;7365924;19;20872;-65
2022/07/29 05:49:08;;;;;;;0.10;0.10;;;;;;;18.38;66.71;101204.16;7363377;19;20054;-65
2022/07/29 05:51:34;;;;;;;0.00;0.00;;;;;;;18.37;66.73;101202.44;7364736;19;20003;-65
2022/07/29 05:53:59;;;;;;;0.05;0.05;;;;;;;18.37;66.73;101207.72;7364114;19;20015;-65
2022/07/29 05:56:24;;;;;;;0.00;0.00;;;;;;;18.36;67.37;101206.00;7363891;19;21071;-66
2022/07/29 05:58:50;;;;;;;0.10;0.10;;;;;;;18.38;67.28;101204.16;7354918;19;20127;-64
2022/07/29 06:01:16;;;;;;;0.10;0.10;;;;;;;18.39;66.63;101205.00;7364059;19;20019;-65
2022/07/29 06:03:41;;;;;;;0.10;0.10;;;;;;;18.30;66.95;101189.59;7363516;19;20652;-65
2022/07/29 06:06:07;;;;;;;0.00;0.00;;;;;;;18.42;66.46;101205.72;7362455;19;20082;-65
2022/07/29 06:08:33;;;;;;;0.10;0.10;;;;;;;18.46;66.83;101195.00;7362202;19;20015;-65
2022/07/29 06:10:59;;;;;;;0.00;0.00;;;;;;;18.48;66.54;101201.06;7363789;19;20759;-65
2022/07/29 06:13:25;;;;;;;0.00;0.00;;;;;;;18.51;66.90;101208.88;7361669;19;20010;-65
2022/07/29 06:15:51;;;;;;;0.00;0.00;;;;;;;18.53;66.51;101205.22;7364889;19;20025;-65
2022/07/29 06:18:16;;;;;;;0.00;0.00;;;;;;;18.54;66.41;101204.28;7360039;19;20007;-65
2022/07/29 06:20:42;;;;;;;0.00;0.00;;;;;;;18.52;66.37;101194.72;7363413;19;20010;-65
2022/07/29 06:23:07;;;;;;;0.00;0.00;;;;;;;18.59;66.16;101196.13;7361028;19;20077;-64
2022/07/29 06:25:35;;;;;;;0.00;0.00;;;;;;;18.47;65.95;101176.41;7361848;19;20014;-65
2022/07/29 06:28:00;;;;;;;;;;;;;;;18.68;63.96;101195.72;7362386;19;22423;-64
2022/07/29 06:30:26;;;;;;;0.10;0.10;;;;;;;18.66;65.85;101208.13;7363434;19;20707;-65
2022/07/29 06:32:52;;;;;;;0.00;0.00;;;;;;;18.68;66.36;101208.94;7361375;19;20010;-65
2022/07/29 06:35:17;;;;;;;0.00;0.00;;;;;;;18.65;66.10;101211.69;7361775;19;20014;-65
2022/07/29 06:37:43;;;;;;;0.10;0.10;;;;;;;18.70;66.79;101217.66;7363019;19;20018;-65
2022/07/29 06:42:53;;;;;;;0.10;0.10;;;;;;;18.76;66.60;101216.53;7360982;19;20962;-64
2022/07/29 06:45:18;;;;;;;0.00;0.00;;;;;;;18.78;66.62;101217.28;7362889;19;20093;-64
2022/07/29 06:47:44;;;;;;;0.10;0.10;;;;;;;18.80;66.54;101210.97;7359334;19;20017;-65
2022/07/29 06:50:12;;;;;;;0.00;0.00;;;;;;;18.84;66.87;101217.84;7362055;19;20089;-64
2022/07/29 06:52:38;;;;;;;0.00;0.00;;;;;;;18.87;66.72;101223.00;7361782;19;20030;-66
2022/07/29 06:55:04;;;;;;;0.10;0.10;;;;;;;18.91;66.37;101227.22;7359196;19;20006;-64
2022/07/29 06:57:29;;;;;;;0.05;0.05;;;;;;;18.96;65.89;101226.09;7360988;19;20014;-64
2022/07/29 06:59:56;;;;;;;0.10;0.10;;;;;;;19.00;65.78;101222.38;7361581;19;20054;-65
2022/07/29 07:02:22;;;;;;;0.00;0.00;;;;;;;18.92;65.85;101209.53;7364441;19;20576;-65
2022/07/29 07:04:47;;;;;;;0.08;0.08;;;;;;;19.06;66.08;101222.06;7361114;19;20014;-64
2022/07/29 07:07:13;;;;;;;0.00;0.00;;;;;;;19.10;65.88;101227.13;7363129;19;20030;-65
2022/07/29 07:09:38;;;;;;;0.08;0.08;;;;;;;19.13;65.63;101228.78;7356948;19;20007;-65
2022/07/29 07:12:04;;;;;;;0.00;0.00;;;;;;;19.12;65.58;101221.78;7362853;19;20122;-65
2022/07/29 07:14:29;;;;;;;0.10;0.10;;;;;;;19.10;65.38;101219.19;7357239;19;20022;-65
2022/07/29 07:16:54;;;;;;;0.00;0.00;;;;;;;19.24;65.56;101226.44;7362458;19;20033;-65
2022/07/29 07:19:20;;;;;;;0.00;0.00;;;;;;;19.23;64.50;101218.59;7357812;19;20371;-64
2022/07/29 07:21:45;;;;;;;0.10;0.10;;;;;;;18.99;65.00;101184.47;7356370;19;20010;-64
2022/07/29 07:24:11;;;;;;;0.00;0.00;;;;;;;19.24;65.16;101215.00;7358053;19;20014;-66
2022/07/29 07:26:36;;;;;;;0.10;0.10;;;;;;;19.39;65.59;101235.41;7349592;19;20013;-65
2022/07/29 07:29:02;;;;;;;0.10;0.10;;;;;;;19.44;64.68;101234.25;7358353;19;20007;-65
2022/07/29 07:31:27;;;;;;;0.00;0.00;;;;;;;19.52;64.77;101239.16;7363178;19;20364;-65
2022/07/29 07:33:53;;;;;;;0.00;0.00;;;;;;;19.59;65.13;101239.69;7356389;19;20021;-65
2022/07/29 07:36:18;;;;;;;0.00;0.00;;;;;;;19.68;64.91;101233.97;7359597;19;20014;-64
2022/07/29 07:38:44;;;;;;;0.10;0.10;;;;;;;19.76;64.54;101229.09;7361602;19;20625;-64
2022/07/29 07:41:09;;;;;;;0.10;0.10;;;;;;;19.85;64.79;101233.91;7361410;19;20389;-65
2022/07/29 07:43:35;;;;;;;0.10;0.10;;;;;;;19.94;64.76;101238.72;7359678;19;20082;-66
2022/07/29 07:46:00;;;;;;;0.10;0.10;;;;;;;20.00;64.54;101231.38;7362141;19;20632;-65
2022/07/29 07:48:26;;;;;;;0.10;0.10;;;;;;;20.14;64.40;101239.47;7364293;19;20086;-65
2022/07/29 07:50:51;;;;;;;0.00;0.00;;;;;;;20.23;64.24;101244.28;7368328;19;20089;-65
2022/07/29 07:53:16;;;;;;;0.10;0.10;;;;;;;20.33;63.77;101244.63;7362320;19;20074;-66
2022/07/29 07:55:43;;;;;;;0.00;0.00;;;;;;;20.42;64.03;101239.66;7365480;19;20851;-65
2022/07/29 07:58:09;;;;;;;0.10;0.10;;;;;;;20.51;63.33;101243.63;7365428;19;20006;-65
2022/07/29 08:00:34;;;;;;;0.00;0.00;;;;;;;20.59;63.44;101245.88;7365934;19;20015;-64
2022/07/29 08:03:00;;;;;;;0.10;0.10;;;;;;;20.61;63.60;101238.66;7366315;19;20101;-65
2022/07/29 08:05:25;;;;;;;0.00;0.00;;;;;;;20.75;63.41;101253.84;7362334;19;20059;-65
2022/07/29 08:07:50;;;;;;;0.10;0.10;;;;;;;20.83;62.17;101249.78;7359169;19;20026;-65
2022/07/29 08:13:06;;;;;;;0.00;0.00;;;;;;;21.02;61.84;101249.59;7333587;19;20092;-64
2022/07/29 08:15:31;;;;;;;0.10;0.10;;;;;;;21.06;61.38;101237.00;7364310;19;20431;-65
2022/07/29 08:17:57;;;;;;;0.10;0.10;;;;;;;21.11;61.76;101238.44;7364358;19;20015;-64
2022/07/29 08:20:22;;;;;;;0.00;0.00;;;;;;;21.18;61.67;101234.47;7365404;19;20838;-64
2022/07/29 08:22:47;;;;;;;0.10;0.10;;;;;;;21.26;61.28;101239.34;7368376;19;20010;-65
2022/07/29 08:25:13;;;;;;;0.00;0.00;;;;;;;21.35;61.42;101236.19;7365994;19;20003;-64
2022/07/29 08:27:38;;;;;;;0.10;0.10;;;;;;;21.45;61.11;101233.84;7365617;19;20107;-64
2022/07/29 08:30:05;;;;;;;0.08;0.08;;;;;;;21.48;60.97;101215.88;7367222;19;20707;-64
2022/07/29 08:32:31;;;;;;;0.00;0.00;;;;;;;21.61;60.10;101223.13;7368172;19;20007;-65
2022/07/29 08:34:56;;;;;;;0.10;0.10;;;;;;;21.71;60.11;101221.63;7364601;19;20237;-64
2022/07/29 08:37:22;;;;;;;0.10;0.10;;;;;;;21.79;58.88;101229.97;7367516;19;20044;-65
2022/07/29 08:39:47;;;;;;;0.00;0.00;;;;;;;21.86;59.17;101220.69;7364075;19;20050;-66
2022/07/29 08:42:13;;;;;;;0.10;0.10;;;;;;;21.92;59.28;101215.00;7350865;19;20010;-64
2022/07/29 08:44:39;;;;;;;0.10;0.10;;;;;;;22.00;59.20;101212.72;7355860;19;20015;-65
2022/07/29 08:47:05;;;;;;;0.05;0.05;;;;;;;22.09;58.87;101210.41;7356207;19;20012;-65
2022/07/29 08:49:33;;;;;;;0.05;0.05;;;;;;;22.19;58.79;101207.09;7348109;19;20138;-63
2022/07/29 08:51:59;;;;;;;0.00;0.00;;;;;;;22.25;58.54;101200.53;7352386;19;20011;-65
2022/07/29 08:54:25;;;;;;;0.10;0.10;;;;;;;22.33;56.94;101203.59;7352861;19;20097;-64
2022/07/29 08:56:51;;;;;;;0.00;0.00;;;;;;;22.44;57.98;101205.56;7363820;19;20039;-65
2022/07/29 08:59:20;;;;;;;0.00;0.00;;;;;;;22.54;57.34;101209.31;7364990;19;20458;-64
2022/07/29 09:01:47;;;;;;;0.10;0.10;;;;;;;22.60;56.89;101211.59;7365458;19;20013;-64
2022/07/29 09:04:14;;;;;;;0.10;0.10;;;;;;;22.67;57.60;101204.94;7364918;19;21170;-64
2022/07/29 09:06:43;;;;;;;0.00;0.00;;;;;;;22.81;56.74;101214.69;7363097;19;20592;-65
2022/07/29 09:09:10;;;;;;;0.10;0.10;;;;;;;22.89;57.09;101207.06;7365877;19;20014;-64
2022/07/29 09:11:35;;;;;;;0.10;0.10;;;;;;;22.98;56.41;101211.78;7366087;19;20553;-65
2022/07/29 09:14:01;;;;;;;0.00;0.00;;;;;;;23.08;55.67;101213.81;7362573;19;20006;-65
2022/07/29 09:16:44;;;;;;;0.10;0.10;;;;;;;23.28;55.74;101208.00;7363693;19;20002;-64
2022/07/29 09:19:36;;;;;;;0.10;0.10;;;;;;;23.37;55.49;101207.38;7353998;19;20013;-65
2022/07/29 09:22:04;;;;;;;0.10;0.10;;;;;;;23.41;53.82;101208.00;7255312;19;2004245;-65
2022/07/29 09:24:38;;;;;;;0.00;0.00;;;;;;;23.50;54.18;101210.91;7352362;19;20011;-65
2022/07/29 09:27:26;;;;;;;0.10;0.10;;;;;;;23.55;54.21;101194.59;7361978;19;20036;-64
2022/07/29 09:30:05;;;;;;;0.10;0.10;;;;;;;23.69;54.54;101207.00;7363010;19;20014;-64
2022/07/29 09:32:31;;;;;;;0.00;0.00;;;;;;;23.75;52.15;101212.75;7363737;19;20537;-65
2022/07/29 09:35:15;;;;;;;0.10;0.10;;;;;;;23.99;53.53;101204.84;7365697;19;23786;-64
2022/07/29 09:37:41;;;;;;;0.10;0.10;;;;;;;24.00;52.05;101203.88;7365883;19;20761;-65
2022/07/29 09:40:21;;;;;;;0.10;0.10;;;;;;;24.23;52.87;101206.72;7365408;19;20010;-64
2022/07/29 09:42:47;;;;;;;0.10;0.10;;;;;;;24.35;52.00;101205.84;7365771;19;20764;-64
2022/07/29 09:45:26;;;;;;;0.00;0.00;;;;;;;24.59;52.70;101185.38;7361271;19;20022;-65
2022/07/29 09:47:52;;;;;;;0.00;0.00;;;;;;;24.79;50.53;101197.28;7366136;19;20077;-65
2022/07/29 09:50:23;;;;;;;0.10;0.10;;;;;;;24.94;50.80;101199.72;7361721;19;21606;-66
2022/07/29 09:52:50;;;;;;;0.10;0.10;;;;;;;25.04;49.62;101200.75;7363305;19;20927;-65
2022/07/29 09:55:16;;;;;;;0.10;0.10;;;;;;;25.05;50.31;101199.81;7361904;19;20026;-65
2022/07/29 09:57:42;;;;;;;0.07;0.07;;;;;;;25.05;50.04;101195.31;7363544;19;20010;-65
2022/07/29 10:00:09;;;;;;;0.03;0.03;;;;;;;25.09;49.98;101191.47;7361522;19;20010;-64
2022/07/29 10:02:36;;;;;;;0.08;0.08;;;;;;;25.09;48.96;101194.16;7362615;19;20378;-64
2022/07/29 10:05:06;;;;;;;0.00;0.00;;;;;;;25.10;49.88;101197.66;7358451;19;20014;-63
2022/07/29 10:07:44;;;;;;;0.10;0.10;;;;;;;25.09;50.44;101190.59;7354439;19;20705;-65
2022/07/29 10:10:09;;;;;;;0.10;0.10;;;;;;;24.85;49.80;101167.41;7361927;19;20014;-64
2022/07/29 10:12:49;;;;;;;0.10;0.10;;;;;;;25.00;50.20;101186.78;7364320;19;20041;-65
2022/07/29 10:15:15;;;;;;;0.10;0.10;;;;;;;24.95;49.74;101190.78;7362683;19;20023;-65
2022/07/29 10:17:41;;;;;;;0.10;0.10;;;;;;;24.96;48.96;101196.00;7357151;19;21462;-64
2022/07/29 10:20:08;;;;;;;0.10;0.10;;;;;;;24.95;49.66;101191.63;7360098;19;20002;-65
2022/07/29 10:22:33;;;;;;;0.10;0.10;;;;;;;24.84;49.53;101186.25;7361285;19;20110;-64
2022/07/29 10:24:59;;;;;;;0.10;0.10;;;;;;;24.82;48.93;101188.16;7362648;19;20090;-65
2022/07/29 10:27:24;;;;;;;0.10;0.10;;;;;;;24.85;49.41;101209.31;7360654;19;20769;-64
2022/07/29 10:29:50;;;;;;;0.10;0.10;;;;;;;24.70;48.56;101199.78;7357778;19;20007;-65
2022/07/29 10:32:49;;;;;;;0.10;0.10;;;;;;;24.70;49.67;101200.63;7360354;19;20038;-65
2022/07/29 10:35:20;;;;;;;0.10;0.10;;;;;;;24.50;49.76;101193.22;7259461;19;2004295;-65
2022/07/29 10:38:07;;;;;;;0.10;0.10;;;;;;;24.43;49.66;101198.16;7359250;19;20014;-64
2022/07/29 10:43:35;;;;;;;0.10;0.10;;;;;;;24.25;49.86;101194.13;7260295;19;2004426;-64
2022/07/29 10:46:02;;;;;;;0.00;0.00;;;;;;;24.17;49.88;101188.47;7360485;19;20010;-64
2022/07/29 10:48:28;;;;;;;0.10;0.10;;;;;;;24.22;49.14;101202.34;7356782;19;20019;-64
2022/07/29 10:50:55;;;;;;;0.10;0.10;;;;;;;24.20;48.36;101204.28;7359083;19;20014;-65
2022/07/29 10:53:21;;;;;;;0.10;0.10;;;;;;;24.14;48.73;101200.22;7362031;19;20010;-64
2022/07/29 10:55:49;;;;;;;0.00;0.00;;;;;;;24.07;49.25;101202.47;7360647;19;20010;-64
2022/07/29 10:58:16;;;;;;;0.10;0.10;;;;;;;24.01;50.03;101202.91;7357588;19;20018;-64
2022/07/29 11:00:41;;;;;;;0.10;0.10;;;;;;;23.99;49.34;101199.50;7357608;19;20057;-64
2022/07/29 11:03:07;;;;;;;0.05;0.05;;;;;;;23.99;49.93;101191.50;7360091;19;20368;-65
2022/07/29 11:05:53;;;;;;;0.10;0.10;;;;;;;24.06;50.48;101183.91;7360099;19;20875;-64
2022/07/29 11:08:22;;;;;;;0.10;0.10;;;;;;;23.94;49.74;101180.31;7361524;19;20109;-65
2022/07/29 11:10:51;;;;;;;0.10;0.10;;;;;;;24.06;49.76;101195.44;7360929;19;20010;-65
2022/07/29 11:13:50;;;;;;;0.10;0.10;;;;;;;24.12;49.78;101187.94;7357286;19;20157;-64
2022/07/29 11:16:17;;;;;;;0.08;0.08;;;;;;;24.06;49.08;101184.75;7256214;19;2004724;-64
2022/07/29 11:19:10;;;;;;;0.00;0.00;;;;;;;24.10;50.06;101195.22;7354675;19;20024;-64
2022/07/29 11:21:38;;;;;;;0.10;0.10;;;;;;;24.03;49.66;101200.16;7261066;19;2004554;-65
2022/07/29 11:24:31;;;;;;;0.10;0.10;;;;;;;24.04;49.89;101197.38;7364414;19;20022;-64
2022/07/29 11:27:10;;;;;;;0.08;0.08;;;;;;;24.00;49.98;101198.53;7265324;19;2004399;-65
2022/07/29 11:29:40;;;;;;;0.10;0.10;;;;;;;23.95;50.02;101203.34;7365074;19;20014;-65
2022/07/29 11:32:14;;;;;;;0.10;0.10;;;;;;;23.88;49.82;101204.75;7361471;19;20019;-64
2022/07/29 11:34:41;;;;;;;0.10;0.10;;;;;;;23.88;49.52;101218.09;7365068;19;20011;-64
2022/07/29 11:37:06;;;;;;;0.10;0.10;;;;;;;23.84;49.97;101202.41;7363355;19;20063;-63
2022/07/29 11:39:39;;;;;;;0.05;0.05;;;;;;;23.85;50.25;101201.44;7365151;19;20006;-65